sensor_id;sensor_type;location;lat;lon;timestamp;P1;durP1;ratioP1;P2;durP2;ratioP2
4313;SDS011;2170;48.794;9.182;2023-05-10T00:00:13;1.37;;;1.37;;
4313;SDS011;2170;48.794;9.182;2023-05-10T00:02:52;1.10;;;1.10;;
4313;SDS011;2170;48.794;9.182;2023-05-10T00:05:26;1.40;;;1.30;;
4313;SDS011;2170;48.794;9.182;2023-05-10T00:08:01;1.00;;;1.00;;
4313;SDS011;2170;48.794;9.182;2023-05-10T00:10:38;1.23;;;1.23;;
4313;SDS011;2170;48.794;9.182;2023-05-10T00:13:13;1.23;;;1.23;;
4313;SDS011;2170;48.794;9.182;2023-05-10T00:15:41;1.07;;;1.07;;
4313;SDS011;2170;48.794;9.182;2023-05-10T00:18:13;1.43;;;1.10;;
4313;SDS011;2170;48.794;9.182;2023-05-10T00:20:42;1.07;;;1.07;;
4313;SDS011;2170;48.794;9.182;2023-05-10T00:23:15;1.83;;;1.10;;
4313;SDS011;2170;48.794;9.182;2023-05-10T00:25:44;0.87;;;0.87;;
4313;SDS011;2170;48.794;9.182;2023-05-10T00:28:28;0.93;;;0.93;;
4313;SDS011;2170;48.794;9.182;2023-05-10T00:31:05;2.00;;;0.50;;
4313;SDS011;2170;48.794;9.182;2023-05-10T00:33:36;0.60;;;0.60;;
4313;SDS011;2170;48.794;9.182;2023-05-10T00:36:07;0.63;;;0.63;;
4313;SDS011;2170;48.794;9.182;2023-05-10T00:38:37;0.90;;;0.53;;
4313;SDS011;2170;48.794;9.182;2023-05-10T00:41:08;2.33;;;1.00;;
4313;SDS011;2170;48.794;9.182;2023-05-10T00:43:36;0.50;;;0.50;;
4313;SDS011;2170;48.794;9.182;2023-05-10T00:46:07;0.53;;;0.53;;
4313;SDS011;2170;48.794;9.182;2023-05-10T00:48:47;0.53;;;0.53;;
4313;SDS011;2170;48.794;9.182;2023-05-10T00:51:15;0.50;;;0.50;;
4313;SDS011;2170;48.794;9.182;2023-05-10T00:53:47;0.50;;;0.50;;
4313;SDS011;2170;48.794;9.182;2023-05-10T00:56:24;0.60;;;0.60;;
4313;SDS011;2170;48.794;9.182;2023-05-10T00:58:55;0.40;;;0.40;;
4313;SDS011;2170;48.794;9.182;2023-05-10T01:01:26;1.07;;;0.77;;
4313;SDS011;2170;48.794;9.182;2023-05-10T01:04:04;0.40;;;0.40;;
4313;SDS011;2170;48.794;9.182;2023-05-10T01:06:32;0.50;;;0.50;;
4313;SDS011;2170;48.794;9.182;2023-05-10T01:09:05;2.20;;;0.47;;
4313;SDS011;2170;48.794;9.182;2023-05-10T01:11:33;0.57;;;0.57;;
4313;SDS011;2170;48.794;9.182;2023-05-10T01:14:02;0.50;;;0.50;;
4313;SDS011;2170;48.794;9.182;2023-05-10T01:16:31;2.00;;;0.50;;
4313;SDS011;2170;48.794;9.182;2023-05-10T01:19:02;3.60;;;0.40;;
4313;SDS011;2170;48.794;9.182;2023-05-10T01:21:33;0.90;;;0.50;;
4313;SDS011;2170;48.794;9.182;2023-05-10T01:24:25;0.50;;;0.50;;
4313;SDS011;2170;48.794;9.182;2023-05-10T01:32:48;0.70;;;0.70;;
4313;SDS011;2170;48.794;9.182;2023-05-10T01:35:26;0.60;;;0.60;;
4313;SDS011;2170;48.794;9.182;2023-05-10T01:37:59;0.60;;;0.60;;
4313;SDS011;2170;48.794;9.182;2023-05-10T01:40:32;1.43;;;0.80;;
4313;SDS011;2170;48.794;9.182;2023-05-10T01:43:03;0.70;;;0.70;;
4313;SDS011;2170;48.794;9.182;2023-05-10T01:45:37;0.70;;;0.70;;
4313;SDS011;2170;48.794;9.182;2023-05-10T01:48:13;0.80;;;0.80;;
4313;SDS011;2170;48.794;9.182;2023-05-10T01:50:47;2.20;;;0.60;;
4313;SDS011;2170;48.794;9.182;2023-05-10T01:53:17;1.47;;;0.80;;
4313;SDS011;2170;48.794;9.182;2023-05-10T01:55:49;1.53;;;0.70;;
4313;SDS011;2170;48.794;9.182;2023-05-10T01:58:19;1.83;;;0.70;;
4313;SDS011;2170;48.794;9.182;2023-05-10T02:00:49;0.60;;;0.60;;
4313;SDS011;2170;48.794;9.182;2023-05-10T02:03:20;1.00;;;0.87;;
4313;SDS011;2170;48.794;9.182;2023-05-10T02:05:50;0.70;;;0.70;;
4313;SDS011;2170;48.794;9.182;2023-05-10T02:08:23;0.60;;;0.60;;
4313;SDS011;2170;48.794;9.182;2023-05-10T02:10:52;0.70;;;0.70;;
4313;SDS011;2170;48.794;9.182;2023-05-10T02:13:24;0.60;;;0.60;;
4313;SDS011;2170;48.794;9.182;2023-05-10T02:15:56;1.77;;;1.00;;
4313;SDS011;2170;48.794;9.182;2023-05-10T02:18:26;0.80;;;0.80;;
4313;SDS011;2170;48.794;9.182;2023-05-10T02:21:00;0.63;;;0.63;;
4313;SDS011;2170;48.794;9.182;2023-05-10T02:23:31;0.70;;;0.70;;
4313;SDS011;2170;48.794;9.182;2023-05-10T02:26:13;0.57;;;0.57;;
4313;SDS011;2170;48.794;9.182;2023-05-10T02:28:44;1.30;;;0.67;;
4313;SDS011;2170;48.794;9.182;2023-05-10T02:31:15;0.60;;;0.60;;
4313;SDS011;2170;48.794;9.182;2023-05-10T02:33:51;0.80;;;0.80;;
4313;SDS011;2170;48.794;9.182;2023-05-10T02:36:27;0.77;;;0.70;;
4313;SDS011;2170;48.794;9.182;2023-05-10T02:39:06;0.60;;;0.60;;
4313;SDS011;2170;48.794;9.182;2023-05-10T02:41:38;0.67;;;0.67;;
4313;SDS011;2170;48.794;9.182;2023-05-10T02:44:10;1.07;;;0.67;;
4313;SDS011;2170;48.794;9.182;2023-05-10T02:46:39;1.17;;;0.80;;
4313;SDS011;2170;48.794;9.182;2023-05-10T02:49:08;0.60;;;0.60;;
4313;SDS011;2170;48.794;9.182;2023-05-10T02:51:37;0.70;;;0.70;;
4313;SDS011;2170;48.794;9.182;2023-05-10T02:54:12;2.40;;;0.77;;
4313;SDS011;2170;48.794;9.182;2023-05-10T02:56:47;1.37;;;0.77;;
4313;SDS011;2170;48.794;9.182;2023-05-10T02:59:17;0.57;;;0.57;;
4313;SDS011;2170;48.794;9.182;2023-05-10T03:01:48;1.13;;;0.50;;
4313;SDS011;2170;48.794;9.182;2023-05-10T03:04:27;0.60;;;0.60;;
4313;SDS011;2170;48.794;9.182;2023-05-10T03:06:56;0.93;;;0.80;;
4313;SDS011;2170;48.794;9.182;2023-05-10T03:09:34;0.90;;;0.70;;
4313;SDS011;2170;48.794;9.182;2023-05-10T03:12:07;1.23;;;0.70;;
4313;SDS011;2170;48.794;9.182;2023-05-10T03:14:45;0.80;;;0.80;;
4313;SDS011;2170;48.794;9.182;2023-05-10T03:17:29;0.93;;;0.90;;
4313;SDS011;2170;48.794;9.182;2023-05-10T03:20:12;1.07;;;0.87;;
4313;SDS011;2170;48.794;9.182;2023-05-10T03:22:45;0.70;;;0.70;;
4313;SDS011;2170;48.794;9.182;2023-05-10T03:25:15;1.10;;;1.00;;
4313;SDS011;2170;48.794;9.182;2023-05-10T03:27:47;1.07;;;0.83;;
4313;SDS011;2170;48.794;9.182;2023-05-10T03:30:15;1.17;;;1.17;;
4313;SDS011;2170;48.794;9.182;2023-05-10T03:32:46;1.00;;;1.00;;
4313;SDS011;2170;48.794;9.182;2023-05-10T03:35:16;1.33;;;1.23;;
4313;SDS011;2170;48.794;9.182;2023-05-10T03:37:47;1.00;;;1.00;;
4313;SDS011;2170;48.794;9.182;2023-05-10T03:40:23;1.10;;;1.03;;
4313;SDS011;2170;48.794;9.182;2023-05-10T03:42:51;1.20;;;1.20;;
4313;SDS011;2170;48.794;9.182;2023-05-10T03:45:19;1.20;;;1.20;;
4313;SDS011;2170;48.794;9.182;2023-05-10T03:47:49;1.00;;;1.00;;
4313;SDS011;2170;48.794;9.182;2023-05-10T03:50:20;1.00;;;1.00;;
4313;SDS011;2170;48.794;9.182;2023-05-10T03:52:48;0.93;;;0.93;;
4313;SDS011;2170;48.794;9.182;2023-05-10T03:55:16;1.83;;;1.10;;
4313;SDS011;2170;48.794;9.182;2023-05-10T03:57:44;1.73;;;1.00;;
4313;SDS011;2170;48.794;9.182;2023-05-10T04:00:12;1.40;;;1.40;;
4313;SDS011;2170;48.794;9.182;2023-05-10T04:02:40;1.13;;;1.13;;
4313;SDS011;2170;48.794;9.182;2023-05-10T04:05:08;1.30;;;1.20;;
4313;SDS011;2170;48.794;9.182;2023-05-10T04:07:37;1.60;;;1.50;;
4313;SDS011;2170;48.794;9.182;2023-05-10T04:10:09;1.20;;;1.20;;
4313;SDS011;2170;48.794;9.182;2023-05-10T04:12:37;1.53;;;1.43;;
4313;SDS011;2170;48.794;9.182;2023-05-10T04:15:05;1.17;;;1.10;;
4313;SDS011;2170;48.794;9.182;2023-05-10T04:17:37;1.43;;;1.33;;
4313;SDS011;2170;48.794;9.182;2023-05-10T04:20:10;1.40;;;1.40;;
4313;SDS011;2170;48.794;9.182;2023-05-10T04:22:43;1.60;;;1.50;;
4313;SDS011;2170;48.794;9.182;2023-05-10T04:25:11;1.30;;;1.30;;
4313;SDS011;2170;48.794;9.182;2023-05-10T04:27:39;1.37;;;1.30;;
4313;SDS011;2170;48.794;9.182;2023-05-10T04:30:13;1.40;;;1.40;;
4313;SDS011;2170;48.794;9.182;2023-05-10T04:32:41;1.10;;;1.10;;
4313;SDS011;2170;48.794;9.182;2023-05-10T04:35:13;1.37;;;1.30;;
4313;SDS011;2170;48.794;9.182;2023-05-10T04:37:47;1.33;;;1.23;;
4313;SDS011;2170;48.794;9.182;2023-05-10T04:40:15;1.33;;;1.33;;
4313;SDS011;2170;48.794;9.182;2023-05-10T04:42:48;1.53;;;1.43;;
4313;SDS011;2170;48.794;9.182;2023-05-10T04:45:16;1.43;;;1.43;;
4313;SDS011;2170;48.794;9.182;2023-05-10T04:47:47;1.83;;;1.47;;
4313;SDS011;2170;48.794;9.182;2023-05-10T04:50:18;1.10;;;1.10;;
4313;SDS011;2170;48.794;9.182;2023-05-10T04:52:47;2.10;;;1.40;;
4313;SDS011;2170;48.794;9.182;2023-05-10T04:55:15;1.60;;;1.50;;
4313;SDS011;2170;48.794;9.182;2023-05-10T04:57:45;1.57;;;1.47;;
4313;SDS011;2170;48.794;9.182;2023-05-10T05:00:13;2.30;;;2.20;;
4313;SDS011;2170;48.794;9.182;2023-05-10T05:02:43;1.50;;;1.40;;
4313;SDS011;2170;48.794;9.182;2023-05-10T05:05:21;1.33;;;1.33;;
4313;SDS011;2170;48.794;9.182;2023-05-10T05:07:50;2.60;;;1.87;;
4313;SDS011;2170;48.794;9.182;2023-05-10T05:10:19;8.60;;;3.10;;
4313;SDS011;2170;48.794;9.182;2023-05-10T05:12:48;1.60;;;1.50;;
4313;SDS011;2170;48.794;9.182;2023-05-10T05:15:16;2.87;;;1.60;;
4313;SDS011;2170;48.794;9.182;2023-05-10T05:17:44;1.50;;;1.40;;
4313;SDS011;2170;48.794;9.182;2023-05-10T05:20:12;2.40;;;1.60;;
4313;SDS011;2170;48.794;9.182;2023-05-10T05:22:41;2.60;;;2.17;;
4313;SDS011;2170;48.794;9.182;2023-05-10T05:25:18;1.87;;;1.77;;
4313;SDS011;2170;48.794;9.182;2023-05-10T05:27:46;5.23;;;4.07;;
4313;SDS011;2170;48.794;9.182;2023-05-10T05:30:14;1.93;;;1.70;;
4313;SDS011;2170;48.794;9.182;2023-05-10T05:32:42;1.90;;;1.53;;
4313;SDS011;2170;48.794;9.182;2023-05-10T05:35:13;2.00;;;1.90;;
4313;SDS011;2170;48.794;9.182;2023-05-10T05:37:40;3.83;;;1.63;;
4313;SDS011;2170;48.794;9.182;2023-05-10T05:40:11;1.60;;;1.40;;
4313;SDS011;2170;48.794;9.182;2023-05-10T05:42:40;1.40;;;1.30;;
4313;SDS011;2170;48.794;9.182;2023-05-10T05:45:08;1.40;;;1.30;;
4313;SDS011;2170;48.794;9.182;2023-05-10T05:47:40;5.87;;;5.37;;
4313;SDS011;2170;48.794;9.182;2023-05-10T05:50:08;1.50;;;1.50;;
4313;SDS011;2170;48.794;9.182;2023-05-10T05:52:37;2.90;;;1.70;;
4313;SDS011;2170;48.794;9.182;2023-05-10T05:55:06;2.10;;;1.73;;
4313;SDS011;2170;48.794;9.182;2023-05-10T05:57:34;2.13;;;1.80;;
4313;SDS011;2170;48.794;9.182;2023-05-10T06:00:07;9.50;;;1.93;;
4313;SDS011;2170;48.794;9.182;2023-05-10T06:02:36;1.70;;;1.60;;
4313;SDS011;2170;48.794;9.182;2023-05-10T06:05:06;2.10;;;1.90;;
4313;SDS011;2170;48.794;9.182;2023-05-10T06:07:34;2.07;;;1.40;;
4313;SDS011;2170;48.794;9.182;2023-05-10T06:10:04;1.97;;;1.80;;
4313;SDS011;2170;48.794;9.182;2023-05-10T06:12:35;1.70;;;1.60;;
4313;SDS011;2170;48.794;9.182;2023-05-10T06:15:03;2.20;;;2.00;;
4313;SDS011;2170;48.794;9.182;2023-05-10T06:17:38;2.00;;;1.90;;
4313;SDS011;2170;48.794;9.182;2023-05-10T06:20:08;1.90;;;1.67;;
4313;SDS011;2170;48.794;9.182;2023-05-10T06:22:36;2.40;;;1.70;;
4313;SDS011;2170;48.794;9.182;2023-05-10T06:25:13;2.10;;;1.67;;
4313;SDS011;2170;48.794;9.182;2023-05-10T06:27:46;2.57;;;2.07;;
4313;SDS011;2170;48.794;9.182;2023-05-10T06:30:22;2.40;;;2.30;;
4313;SDS011;2170;48.794;9.182;2023-05-10T06:32:55;1.80;;;1.70;;
4313;SDS011;2170;48.794;9.182;2023-05-10T06:35:32;2.07;;;1.87;;
4313;SDS011;2170;48.794;9.182;2023-05-10T06:38:00;1.97;;;1.87;;
4313;SDS011;2170;48.794;9.182;2023-05-10T06:40:31;1.93;;;1.83;;
4313;SDS011;2170;48.794;9.182;2023-05-10T06:42:59;1.60;;;1.50;;
4313;SDS011;2170;48.794;9.182;2023-05-10T06:45:27;1.70;;;1.60;;
4313;SDS011;2170;48.794;9.182;2023-05-10T06:47:59;2.30;;;2.20;;
4313;SDS011;2170;48.794;9.182;2023-05-10T06:50:27;1.97;;;1.67;;
4313;SDS011;2170;48.794;9.182;2023-05-10T06:52:55;1.87;;;1.77;;
4313;SDS011;2170;48.794;9.182;2023-05-10T06:55:24;1.87;;;1.73;;
4313;SDS011;2170;48.794;9.182;2023-05-10T06:57:52;2.40;;;2.30;;
4313;SDS011;2170;48.794;9.182;2023-05-10T07:00:20;2.40;;;1.90;;
4313;SDS011;2170;48.794;9.182;2023-05-10T07:02:48;2.10;;;1.90;;
4313;SDS011;2170;48.794;9.182;2023-05-10T07:05:20;3.10;;;1.70;;
4313;SDS011;2170;48.794;9.182;2023-05-10T07:07:51;3.83;;;2.10;;
4313;SDS011;2170;48.794;9.182;2023-05-10T07:10:22;3.10;;;1.83;;
4313;SDS011;2170;48.794;9.182;2023-05-10T07:12:51;1.90;;;1.80;;
4313;SDS011;2170;48.794;9.182;2023-05-10T07:15:21;2.13;;;1.93;;
4313;SDS011;2170;48.794;9.182;2023-05-10T07:17:49;2.10;;;2.00;;
4313;SDS011;2170;48.794;9.182;2023-05-10T07:20:20;1.60;;;1.50;;
4313;SDS011;2170;48.794;9.182;2023-05-10T07:22:48;1.83;;;1.73;;
4313;SDS011;2170;48.794;9.182;2023-05-10T07:25:16;1.77;;;1.67;;
4313;SDS011;2170;48.794;9.182;2023-05-10T07:27:44;1.90;;;1.80;;
4313;SDS011;2170;48.794;9.182;2023-05-10T07:30:13;2.07;;;1.97;;
4313;SDS011;2170;48.794;9.182;2023-05-10T07:32:41;1.70;;;1.60;;
4313;SDS011;2170;48.794;9.182;2023-05-10T07:35:09;1.73;;;1.57;;
4313;SDS011;2170;48.794;9.182;2023-05-10T07:37:39;1.93;;;1.73;;
4313;SDS011;2170;48.794;9.182;2023-05-10T07:40:07;1.60;;;1.43;;
4313;SDS011;2170;48.794;9.182;2023-05-10T07:42:35;2.43;;;2.23;;
4313;SDS011;2170;48.794;9.182;2023-05-10T07:45:03;1.70;;;1.60;;
4313;SDS011;2170;48.794;9.182;2023-05-10T07:47:32;1.90;;;1.80;;
4313;SDS011;2170;48.794;9.182;2023-05-10T07:50:03;1.90;;;1.50;;
4313;SDS011;2170;48.794;9.182;2023-05-10T07:52:33;1.90;;;1.30;;
4313;SDS011;2170;48.794;9.182;2023-05-10T07:58:05;1.30;;;1.20;;
4313;SDS011;2170;48.794;9.182;2023-05-10T08:00:37;3.10;;;1.40;;
4313;SDS011;2170;48.794;9.182;2023-05-10T08:03:21;1.67;;;1.60;;
4313;SDS011;2170;48.794;9.182;2023-05-10T08:05:52;1.30;;;1.20;;
4313;SDS011;2170;48.794;9.182;2023-05-10T08:08:27;1.00;;;1.00;;
4313;SDS011;2170;48.794;9.182;2023-05-10T08:10:58;1.30;;;1.10;;
4313;SDS011;2170;48.794;9.182;2023-05-10T08:13:30;1.37;;;1.27;;
4313;SDS011;2170;48.794;9.182;2023-05-10T08:16:08;1.43;;;1.20;;
4313;SDS011;2170;48.794;9.182;2023-05-10T08:18:44;1.30;;;1.20;;
4313;SDS011;2170;48.794;9.182;2023-05-10T08:21:14;1.03;;;1.00;;
4313;SDS011;2170;48.794;9.182;2023-05-10T08:23:43;0.90;;;0.90;;
4313;SDS011;2170;48.794;9.182;2023-05-10T08:26:14;1.40;;;1.30;;
4313;SDS011;2170;48.794;9.182;2023-05-10T08:28:48;1.73;;;1.00;;
4313;SDS011;2170;48.794;9.182;2023-05-10T08:31:23;0.80;;;0.80;;
4313;SDS011;2170;48.794;9.182;2023-05-10T08:33:58;1.10;;;0.80;;
4313;SDS011;2170;48.794;9.182;2023-05-10T08:36:27;1.37;;;0.80;;
4313;SDS011;2170;48.794;9.182;2023-05-10T08:39:12;0.90;;;0.90;;
4313;SDS011;2170;48.794;9.182;2023-05-10T08:44:51;2.33;;;1.10;;
4313;SDS011;2170;48.794;9.182;2023-05-10T08:47:28;1.27;;;1.13;;
4313;SDS011;2170;48.794;9.182;2023-05-10T08:50:14;4.63;;;1.00;;
4313;SDS011;2170;48.794;9.182;2023-05-10T08:52:49;2.67;;;1.37;;
4313;SDS011;2170;48.794;9.182;2023-05-10T08:55:23;2.30;;;1.50;;
4313;SDS011;2170;48.794;9.182;2023-05-10T08:57:53;1.43;;;1.30;;
4313;SDS011;2170;48.794;9.182;2023-05-10T09:00:39;2.67;;;1.30;;
4313;SDS011;2170;48.794;9.182;2023-05-10T09:03:19;0.80;;;0.80;;
4313;SDS011;2170;48.794;9.182;2023-05-10T09:06:06;1.23;;;0.80;;
4313;SDS011;2170;48.794;9.182;2023-05-10T09:08:43;1.57;;;1.10;;
4313;SDS011;2170;48.794;9.182;2023-05-10T09:11:14;1.00;;;1.00;;
4313;SDS011;2170;48.794;9.182;2023-05-10T09:13:49;0.77;;;0.77;;
4313;SDS011;2170;48.794;9.182;2023-05-10T09:16:22;1.40;;;0.70;;
4313;SDS011;2170;48.794;9.182;2023-05-10T09:18:50;1.60;;;0.77;;
4313;SDS011;2170;48.794;9.182;2023-05-10T09:21:21;1.23;;;0.90;;
4313;SDS011;2170;48.794;9.182;2023-05-10T09:23:57;0.80;;;0.80;;
4313;SDS011;2170;48.794;9.182;2023-05-10T09:26:46;0.67;;;0.67;;
4313;SDS011;2170;48.794;9.182;2023-05-10T09:32:24;1.40;;;1.07;;
4313;SDS011;2170;48.794;9.182;2023-05-10T09:35:08;0.80;;;0.80;;
4313;SDS011;2170;48.794;9.182;2023-05-10T09:40:38;0.70;;;0.70;;
4313;SDS011;2170;48.794;9.182;2023-05-10T09:43:29;0.60;;;0.60;;
4313;SDS011;2170;48.794;9.182;2023-05-10T09:46:25;1.13;;;0.80;;
4313;SDS011;2170;48.794;9.182;2023-05-10T09:49:13;0.60;;;0.60;;
4313;SDS011;2170;48.794;9.182;2023-05-10T09:52:03;0.60;;;0.60;;
4313;SDS011;2170;48.794;9.182;2023-05-10T09:54:37;2.30;;;0.80;;
4313;SDS011;2170;48.794;9.182;2023-05-10T09:57:20;0.90;;;0.90;;
4313;SDS011;2170;48.794;9.182;2023-05-10T09:59:57;1.30;;;0.83;;
4313;SDS011;2170;48.794;9.182;2023-05-10T10:02:53;2.10;;;0.70;;
4313;SDS011;2170;48.794;9.182;2023-05-10T10:05:33;0.90;;;0.90;;
4313;SDS011;2170;48.794;9.182;2023-05-10T10:08:19;0.70;;;0.70;;
4313;SDS011;2170;48.794;9.182;2023-05-10T10:10:52;1.33;;;0.80;;
4313;SDS011;2170;48.794;9.182;2023-05-10T10:13:21;1.00;;;1.00;;
4313;SDS011;2170;48.794;9.182;2023-05-10T10:16:05;1.10;;;1.00;;
4313;SDS011;2170;48.794;9.182;2023-05-10T10:18:37;0.80;;;0.80;;
4313;SDS011;2170;48.794;9.182;2023-05-10T10:21:10;0.80;;;0.70;;
4313;SDS011;2170;48.794;9.182;2023-05-10T10:23:49;0.90;;;0.90;;
4313;SDS011;2170;48.794;9.182;2023-05-10T10:26:36;0.80;;;0.80;;
4313;SDS011;2170;48.794;9.182;2023-05-10T10:29:10;1.43;;;0.87;;
4313;SDS011;2170;48.794;9.182;2023-05-10T10:31:45;1.23;;;0.90;;
4313;SDS011;2170;48.794;9.182;2023-05-10T10:34:24;1.40;;;0.90;;
4313;SDS011;2170;48.794;9.182;2023-05-10T10:37:12;2.10;;;0.90;;
4313;SDS011;2170;48.794;9.182;2023-05-10T10:39:53;0.70;;;0.70;;
4313;SDS011;2170;48.794;9.182;2023-05-10T10:42:53;1.10;;;1.00;;
4313;SDS011;2170;48.794;9.182;2023-05-10T10:45:48;1.53;;;0.83;;
4313;SDS011;2170;48.794;9.182;2023-05-10T10:54:43;0.73;;;0.73;;
4313;SDS011;2170;48.794;9.182;2023-05-10T10:58:28;0.90;;;0.90;;
4313;SDS011;2170;48.794;9.182;2023-05-10T11:00:49;2.60;;;0.80;;
4313;SDS011;2170;48.794;9.182;2023-05-10T11:03:20;7.20;;;0.80;;
4313;SDS011;2170;48.794;9.182;2023-05-10T11:05:49;1.27;;;0.80;;
4313;SDS011;2170;48.794;9.182;2023-05-10T11:08:28;1.13;;;0.50;;
4313;SDS011;2170;48.794;9.182;2023-05-10T11:11:13;1.43;;;1.00;;
4313;SDS011;2170;48.794;9.182;2023-05-10T11:13:48;0.67;;;0.60;;
4313;SDS011;2170;48.794;9.182;2023-05-10T11:16:36;0.70;;;0.47;;
4313;SDS011;2170;48.794;9.182;2023-05-10T11:19:09;0.40;;;0.40;;
4313;SDS011;2170;48.794;9.182;2023-05-10T11:22:12;1.80;;;1.10;;
4313;SDS011;2170;48.794;9.182;2023-05-10T11:24:59;0.80;;;0.63;;
4313;SDS011;2170;48.794;9.182;2023-05-10T11:27:53;1.33;;;0.77;;
4313;SDS011;2170;48.794;9.182;2023-05-10T11:30:27;1.27;;;0.90;;
4313;SDS011;2170;48.794;9.182;2023-05-10T11:33:18;1.83;;;0.70;;
4313;SDS011;2170;48.794;9.182;2023-05-10T11:35:57;0.80;;;0.70;;
4313;SDS011;2170;48.794;9.182;2023-05-10T11:41:40;2.23;;;1.00;;
4313;SDS011;2170;48.794;9.182;2023-05-10T11:44:14;1.20;;;1.10;;
4313;SDS011;2170;48.794;9.182;2023-05-10T11:46:48;1.93;;;0.90;;
4313;SDS011;2170;48.794;9.182;2023-05-10T11:49:26;0.80;;;0.80;;
4313;SDS011;2170;48.794;9.182;2023-05-10T11:52:07;1.77;;;1.10;;
4313;SDS011;2170;48.794;9.182;2023-05-10T11:54:45;1.80;;;0.90;;
4313;SDS011;2170;48.794;9.182;2023-05-10T11:57:32;2.87;;;0.73;;
4313;SDS011;2170;48.794;9.182;2023-05-10T12:00:21;2.00;;;1.20;;
4313;SDS011;2170;48.794;9.182;2023-05-10T12:03:06;0.80;;;0.80;;
4313;SDS011;2170;48.794;9.182;2023-05-10T12:05:57;0.80;;;0.80;;
4313;SDS011;2170;48.794;9.182;2023-05-10T12:08:43;0.80;;;0.80;;
4313;SDS011;2170;48.794;9.182;2023-05-10T12:11:19;1.30;;;1.20;;
4313;SDS011;2170;48.794;9.182;2023-05-10T12:13:59;1.03;;;1.03;;
4313;SDS011;2170;48.794;9.182;2023-05-10T12:19:31;3.40;;;1.20;;
4313;SDS011;2170;48.794;9.182;2023-05-10T12:22:10;1.33;;;1.17;;
4313;SDS011;2170;48.794;9.182;2023-05-10T12:24:39;1.63;;;1.03;;
4313;SDS011;2170;48.794;9.182;2023-05-10T12:27:08;1.70;;;1.10;;
4313;SDS011;2170;48.794;9.182;2023-05-10T12:29:41;2.20;;;1.00;;
4313;SDS011;2170;48.794;9.182;2023-05-10T12:32:14;1.40;;;1.30;;
4313;SDS011;2170;48.794;9.182;2023-05-10T12:34:46;1.80;;;1.33;;
4313;SDS011;2170;48.794;9.182;2023-05-10T12:37:26;2.13;;;1.43;;
4313;SDS011;2170;48.794;9.182;2023-05-10T12:39:58;1.80;;;1.70;;
4313;SDS011;2170;48.794;9.182;2023-05-10T12:42:27;2.73;;;1.27;;
4313;SDS011;2170;48.794;9.182;2023-05-10T12:45:02;3.23;;;1.60;;
4313;SDS011;2170;48.794;9.182;2023-05-10T12:47:32;0.93;;;0.87;;
4313;SDS011;2170;48.794;9.182;2023-05-10T12:50:21;1.13;;;1.03;;
4313;SDS011;2170;48.794;9.182;2023-05-10T12:52:50;2.40;;;1.27;;
4313;SDS011;2170;48.794;9.182;2023-05-10T12:55:19;1.33;;;1.10;;
4313;SDS011;2170;48.794;9.182;2023-05-10T12:57:59;2.07;;;1.40;;
4313;SDS011;2170;48.794;9.182;2023-05-10T13:00:38;1.47;;;1.20;;
4313;SDS011;2170;48.794;9.182;2023-05-10T13:03:14;1.00;;;1.00;;
4313;SDS011;2170;48.794;9.182;2023-05-10T13:05:49;1.10;;;1.00;;
4313;SDS011;2170;48.794;9.182;2023-05-10T13:08:27;1.20;;;1.20;;
4313;SDS011;2170;48.794;9.182;2023-05-10T13:11:07;1.63;;;1.40;;
4313;SDS011;2170;48.794;9.182;2023-05-10T13:13:38;1.77;;;1.10;;
4313;SDS011;2170;48.794;9.182;2023-05-10T13:16:24;1.23;;;1.20;;
4313;SDS011;2170;48.794;9.182;2023-05-10T13:18:57;1.00;;;1.00;;
4313;SDS011;2170;48.794;9.182;2023-05-10T13:21:32;4.87;;;1.40;;
4313;SDS011;2170;48.794;9.182;2023-05-10T13:24:16;1.00;;;1.00;;
4313;SDS011;2170;48.794;9.182;2023-05-10T13:27:01;1.73;;;1.10;;
4313;SDS011;2170;48.794;9.182;2023-05-10T13:29:46;1.10;;;1.10;;
4313;SDS011;2170;48.794;9.182;2023-05-10T13:32:25;2.63;;;1.20;;
4313;SDS011;2170;48.794;9.182;2023-05-10T13:34:59;1.20;;;1.10;;
4313;SDS011;2170;48.794;9.182;2023-05-10T13:37:41;1.67;;;1.23;;
4313;SDS011;2170;48.794;9.182;2023-05-10T13:40:10;1.03;;;1.03;;
4313;SDS011;2170;48.794;9.182;2023-05-10T13:42:43;1.30;;;1.20;;
4313;SDS011;2170;48.794;9.182;2023-05-10T13:45:32;1.40;;;1.40;;
4313;SDS011;2170;48.794;9.182;2023-05-10T13:48:16;3.03;;;1.13;;
4313;SDS011;2170;48.794;9.182;2023-05-10T13:51:02;5.70;;;1.47;;
4313;SDS011;2170;48.794;9.182;2023-05-10T13:53:34;2.47;;;2.27;;
4313;SDS011;2170;48.794;9.182;2023-05-10T13:56:17;1.60;;;1.27;;
4313;SDS011;2170;48.794;9.182;2023-05-10T13:58:49;2.17;;;1.40;;
4313;SDS011;2170;48.794;9.182;2023-05-10T14:01:17;1.10;;;1.10;;
4313;SDS011;2170;48.794;9.182;2023-05-10T14:03:50;2.53;;;1.37;;
4313;SDS011;2170;48.794;9.182;2023-05-10T14:06:26;3.33;;;1.50;;
4313;SDS011;2170;48.794;9.182;2023-05-10T14:09:01;3.13;;;1.40;;
4313;SDS011;2170;48.794;9.182;2023-05-10T14:11:33;2.37;;;1.20;;
4313;SDS011;2170;48.794;9.182;2023-05-10T14:14:00;4.27;;;1.33;;
4313;SDS011;2170;48.794;9.182;2023-05-10T14:16:29;4.77;;;1.43;;
4313;SDS011;2170;48.794;9.182;2023-05-10T14:18:58;2.60;;;0.80;;
4313;SDS011;2170;48.794;9.182;2023-05-10T14:21:26;2.00;;;1.50;;
4313;SDS011;2170;48.794;9.182;2023-05-10T14:23:56;1.70;;;0.90;;
4313;SDS011;2170;48.794;9.182;2023-05-10T14:26:28;1.03;;;0.93;;
4313;SDS011;2170;48.794;9.182;2023-05-10T14:28:58;1.10;;;1.10;;
4313;SDS011;2170;48.794;9.182;2023-05-10T14:31:37;1.40;;;1.10;;
4313;SDS011;2170;48.794;9.182;2023-05-10T14:34:10;1.23;;;1.10;;
4313;SDS011;2170;48.794;9.182;2023-05-10T14:36:45;1.00;;;0.90;;
4313;SDS011;2170;48.794;9.182;2023-05-10T14:39:13;2.07;;;1.10;;
4313;SDS011;2170;48.794;9.182;2023-05-10T14:41:43;1.47;;;1.37;;
4313;SDS011;2170;48.794;9.182;2023-05-10T14:44:13;1.00;;;0.90;;
4313;SDS011;2170;48.794;9.182;2023-05-10T14:46:42;2.10;;;1.10;;
4313;SDS011;2170;48.794;9.182;2023-05-10T14:49:21;1.80;;;0.90;;
4313;SDS011;2170;48.794;9.182;2023-05-10T14:51:51;2.00;;;1.30;;
4313;SDS011;2170;48.794;9.182;2023-05-10T14:54:22;1.10;;;1.00;;
4313;SDS011;2170;48.794;9.182;2023-05-10T14:56:53;1.33;;;0.87;;
4313;SDS011;2170;48.794;9.182;2023-05-10T14:59:21;0.93;;;0.90;;
4313;SDS011;2170;48.794;9.182;2023-05-10T15:01:52;2.43;;;1.30;;
4313;SDS011;2170;48.794;9.182;2023-05-10T15:04:21;2.10;;;1.03;;
4313;SDS011;2170;48.794;9.182;2023-05-10T15:07:00;1.83;;;1.73;;
4313;SDS011;2170;48.794;9.182;2023-05-10T15:10:10;0.87;;;0.87;;
4313;SDS011;2170;48.794;9.182;2023-05-10T15:12:33;2.80;;;1.00;;
4313;SDS011;2170;48.794;9.182;2023-05-10T15:15:03;1.53;;;1.10;;
4313;SDS011;2170;48.794;9.182;2023-05-10T15:17:36;0.80;;;0.80;;
4313;SDS011;2170;48.794;9.182;2023-05-10T15:20:08;2.17;;;1.10;;
4313;SDS011;2170;48.794;9.182;2023-05-10T15:22:42;1.73;;;0.90;;
4313;SDS011;2170;48.794;9.182;2023-05-10T15:25:16;0.83;;;0.83;;
4313;SDS011;2170;48.794;9.182;2023-05-10T15:27:54;0.93;;;0.90;;
4313;SDS011;2170;48.794;9.182;2023-05-10T15:30:22;3.07;;;1.17;;
4313;SDS011;2170;48.794;9.182;2023-05-10T15:32:54;1.33;;;1.03;;
4313;SDS011;2170;48.794;9.182;2023-05-10T15:35:31;1.00;;;1.00;;
4313;SDS011;2170;48.794;9.182;2023-05-10T15:38:08;1.73;;;0.80;;
4313;SDS011;2170;48.794;9.182;2023-05-10T15:40:55;1.70;;;0.97;;
4313;SDS011;2170;48.794;9.182;2023-05-10T15:43:45;1.70;;;1.00;;
4313;SDS011;2170;48.794;9.182;2023-05-10T15:46:22;0.90;;;0.90;;
4313;SDS011;2170;48.794;9.182;2023-05-10T15:48:52;1.50;;;0.97;;
4313;SDS011;2170;48.794;9.182;2023-05-10T15:51:47;0.97;;;0.97;;
4313;SDS011;2170;48.794;9.182;2023-05-10T15:54:25;2.53;;;0.90;;
4313;SDS011;2170;48.794;9.182;2023-05-10T15:57:01;0.67;;;0.67;;
4313;SDS011;2170;48.794;9.182;2023-05-10T15:59:39;1.57;;;0.90;;
4313;SDS011;2170;48.794;9.182;2023-05-10T16:02:08;0.80;;;0.80;;
4313;SDS011;2170;48.794;9.182;2023-05-10T16:04:43;0.73;;;0.73;;
4313;SDS011;2170;48.794;9.182;2023-05-10T16:07:21;3.13;;;0.90;;
4313;SDS011;2170;48.794;9.182;2023-05-10T16:09:59;1.50;;;1.03;;
4313;SDS011;2170;48.794;9.182;2023-05-10T16:12:31;0.83;;;0.80;;
4313;SDS011;2170;48.794;9.182;2023-05-10T16:15:03;0.67;;;0.60;;
4313;SDS011;2170;48.794;9.182;2023-05-10T16:17:41;0.80;;;0.80;;
4313;SDS011;2170;48.794;9.182;2023-05-10T16:20:22;1.37;;;0.70;;
4313;SDS011;2170;48.794;9.182;2023-05-10T16:22:57;1.40;;;0.80;;
4313;SDS011;2170;48.794;9.182;2023-05-10T16:25:26;0.97;;;0.97;;
4313;SDS011;2170;48.794;9.182;2023-05-10T16:27:55;1.10;;;0.70;;